Flight Track Log - Related Links

Times and Time Zones

All times are in EDT time to prevent confusion due to time zone crossing. See the UAL978 flight status page for this flight to view local times or setup timezone preferences in your user account.

Time Position Orientation Groundspeed Altitude Reporting Facility
EDT Latitude Longitude Course Direction KTS MPH feet Rate Location/Type
Wed 07:56:45 PM -23.4310 -46.4830 North 3 3  Level FlightAware ADS-B
Wed 08:00:01 PM -23.4310 -46.4840 270° West 8 9 447 Level FlightAware ADS-B
Wed 08:00:36 PM -23.4320 -46.4840 180° South 6 7 933 Level FlightAware ADS-B
Wed 08:00:56 PM -23.4330 -46.4840 180° South 9 10 1,159 Level FlightAware ADS-B
Wed 08:01:25 PM -23.4340 -46.4830 137° Southeast 10 12 1,344 Level FlightAware ADS-B
Wed 08:02:15 PM -23.4340 -46.4810 90° East 48 55 1,750 Level FlightAware ADS-B
Wed 08:03:01 PM -23.4250 -46.4490 73° East 186 214 2,800 3,474 Climbing FlightAware ADS-B
Wed 08:03:31 PM -23.4210 -46.4220 81° East 178 205 4,400 2,533 Climbing FlightAware ADS-B
Wed 08:03:46 PM -23.4260 -46.4090 113° Southeast 191 220 4,700 1,680 Climbing FlightAware ADS-B
Wed 08:03:56 PM -23.4340 -46.4030 145° Southeast 194 223 5,100 2,100 Climbing FlightAware ADS-B
Wed 08:04:06 PM -23.4430 -46.4000 163° South 195 224 5,400 2,000 Climbing FlightAware ADS-B
Wed 08:04:26 PM -23.4610 -46.4090 205° Southwest 208 239 6,100 2,000 Climbing FlightAware ADS-B
Wed 08:04:42 PM -23.4680 -46.4250 244° Southwest 217 250 6,600 1,467 Climbing FlightAware ADS-B
Wed 08:05:11 PM -23.4820 -46.4550 243° Southwest 252 290 7,200 1,607 Climbing FlightAware ADS-B
Wed 08:05:38 PM -23.5030 -46.4820 230° Southwest 271 312 8,100 2,154 Climbing FlightAware ADS-B
Wed 08:05:50 PM -23.5130 -46.4960 232° Southwest 279 321 8,600 2,850 Climbing FlightAware ADS-B
Wed 08:06:18 PM -23.5350 -46.5280 233° Southwest 282 325 10,000 1,917 Climbing FlightAware ADS-B
Wed 08:07:02 PM -23.5740 -46.5810 231° Southwest 332 382 10,900 1,214 Climbing FlightAware ADS-B
Wed 08:07:42 PM -23.6130 -46.6370 233° Southwest 372 428 11,700 1,269 Climbing FlightAware ADS-B
Wed 08:07:54 PM -23.6200 -46.6600 252° West 388 447 12,000 2,143 Climbing FlightAware ADS-B
Wed 08:08:38 PM -23.6120 -46.7500 276° West 410 472 13,700 2,360 Climbing FlightAware ADS-B
Wed 08:09:23 PM -23.5970 -46.8420 280° West 423 487 15,500 2,429 Climbing FlightAware ADS-B
Wed 08:10:02 PM -23.5820 -46.9260 281° West 429 494 17,100 2,250 Climbing FlightAware ADS-B
Wed 08:10:43 PM -23.5680 -47.0130 280° West 438 504 18,500 2,170 Climbing FlightAware ADS-B
Wed 08:11:36 PM -23.5490 -47.1270 280° West 442 509 20,500 2,087 Climbing FlightAware ADS-B
Wed 08:12:15 PM -23.5340 -47.2160 280° West 450 518 21,700 1,880 Climbing FlightAware ADS-B
Wed 08:12:59 PM -23.5180 -47.3130 280° West 455 524 23,100 1,857 Climbing FlightAware ADS-B
Wed 08:13:39 PM -23.4890 -47.4010 290° West 464 534 24,300 1,929 Climbing FlightAware ADS-B
Wed 08:14:23 PM -23.4350 -47.4840 305° West 464 534 25,800 2,357 Climbing FlightAware ADS-B
Wed 08:15:03 PM -23.3850 -47.5570 307° West 449 517 27,600 2,329 Climbing FlightAware ADS-B
Wed 08:15:48 PM -23.3300 -47.6390 306° West 444 511 29,100 2,000 Climbing FlightAware ADS-B
Wed 08:16:21 PM -23.2900 -47.6970 307° West 439 505 30,200 1,890 Climbing FlightAware ADS-B
Wed 08:17:01 PM -23.2410 -47.7680 307° West 434 499 31,400 1,714 Climbing FlightAware ADS-B
Wed 08:17:45 PM -23.1890 -47.8440 307° West 426 490 32,600 1,425 Climbing FlightAware ADS-B
Wed 08:18:21 PM -23.1470 -47.9050 307° West 428 493 33,300 947 Climbing FlightAware ADS-B
Wed 08:19:01 PM -23.0990 -47.9760 306° West 434 499 33,800 424 Climbing FlightAware ADS-B
Wed 08:20:00 PM -23.0280 -48.0790 307° West 441 507 34,000 120 Climbing FlightAware ADS-B
Wed 08:20:41 PM -22.9770 -48.1520 307° West 442 509 34,000  Level FlightAware ADS-B
Wed 08:21:21 PM -22.9290 -48.2230 306° West 440 506 34,000  Level FlightAware ADS-B
Wed 08:22:01 PM -22.8800 -48.2940 307° West 441 507 34,000  Level FlightAware ADS-B
Wed 08:22:45 PM -22.8260 -48.3710 307° West 441 507 34,000  Level FlightAware ADS-B
Wed 08:23:21 PM -22.7820 -48.4350 307° West 441 507 34,000  Level FlightAware ADS-B
Wed 08:24:02 PM -22.7330 -48.5070 306° West 443 510 34,000  Level FlightAware ADS-B
Wed 08:24:45 PM -22.6790 -48.5840 307° West 444 511 34,000  Level FlightAware ADS-B
Wed 08:25:26 PM -22.6290 -48.6560 307° West 445 512 34,000  Level FlightAware ADS-B
Wed 08:26:09 PM -22.5740 -48.7350 307° West 446 513 34,000  Level FlightAware ADS-B
Wed 08:26:50 PM -22.5240 -48.8060 307° West 447 514 34,000  Level FlightAware ADS-B
Wed 08:27:33 PM -22.4710 -48.8820 307° West 449 517 34,000  Level FlightAware ADS-B
Wed 08:28:10 PM -22.4250 -48.9490 307° West 451 519 34,000  Level FlightAware ADS-B
Wed 08:28:49 PM -22.3750 -49.0200 307° West 452 520 34,000  Level FlightAware ADS-B
Wed 08:29:33 PM -22.3180 -49.1000 308° West 454 522 34,000  Level FlightAware ADS-B
Wed 08:29:55 PM -22.2860 -49.1380 312° West 455 524 34,000  Level FlightAware ADS-B
Wed 08:31:11 PM -22.1760 -49.2620 314° West 458 527 34,000  Level FlightAware ADS-B
Wed 08:31:56 PM -22.1110 -49.3350 314° West 459 528 34,000  Level FlightAware ADS-B
Wed 08:32:35 PM -22.0540 -49.3980 314° West 459 528 34,000  Level FlightAware ADS-B
Wed 08:33:19 PM -21.9890 -49.4700 314° West 459 528 34,000  Level FlightAware ADS-B
Wed 08:33:59 PM -21.9270 -49.5390 314° West 459 528 34,000  Level FlightAware ADS-B
Wed 08:34:35 PM -21.8740 -49.5980 314° West 459 528 34,000  Level FlightAware ADS-B
Wed 08:35:15 PM -21.8140 -49.6650 314° West 460 529 34,000  Level FlightAware ADS-B
Wed 08:35:59 PM -21.7490 -49.7370 314° West 460 529 34,000  Level FlightAware ADS-B
Wed 08:36:40 PM -21.6890 -49.8040 314° West 459 528 34,000  Level FlightAware ADS-B
Wed 08:37:24 PM -21.6250 -49.8740 315° West 459 528 34,000  Level FlightAware ADS-B
Wed 08:38:03 PM -21.5650 -49.9400 314° West 459 528 34,000  Level FlightAware ADS-B
Wed 08:38:47 PM -21.5000 -50.0120 314° West 461 531 34,000  Level FlightAware ADS-B
Wed 08:39:27 PM -21.4410 -50.0770 314° West 461 531 34,000  Level FlightAware ADS-B
Wed 08:40:07 PM -21.3820 -50.1430 314° West 461 531 34,000  Level FlightAware ADS-B
Wed 08:40:45 PM -21.3280 -50.2030 314° West 462 532 34,000  Level FlightAware ADS-B
Wed 08:41:34 PM -21.2650 -50.2720 314° West 463 533 34,000  Level FlightAware ADS-B
Wed 08:42:28 PM -21.1850 -50.3610 314° West 464 534 34,000  Level FlightAware ADS-B
Wed 08:43:08 PM -21.1120 -50.4420 314° West 463 533 34,000  Level FlightAware ADS-B
Wed 08:44:06 PM -21.0310 -50.5330 314° West 464 534 34,000  Level FlightAware ADS-B
Wed 08:44:58 PM -20.9550 -50.6170 314° West 465 535 34,000  Level FlightAware ADS-B
Wed 08:45:59 PM -20.8640 -50.7170 314° West 466 536 34,000  Level FlightAware ADS-B
Wed 08:46:36 PM -20.8010 -50.7840 315° West 468 539 34,000  Level FlightAware ADS-B
Wed 08:47:16 PM -20.7490 -50.8390 315° West 468 539 34,000  Level FlightAware ADS-B
Wed 08:48:04 PM -20.6860 -50.9060 315° West 468 539 34,000  Level FlightAware ADS-B
Wed 08:48:52 PM -20.6240 -50.9730 315° West 468 539 34,000  Level FlightAware ADS-B
Wed 08:49:27 PM -20.5780 -51.0210 316° Northwest 468 539 34,000  Level FlightAware ADS-B
Wed 08:50:43 PM -20.4430 -51.1650 315° West 474 545 34,000  Level FlightAware ADS-B
Wed 08:51:32 PM -20.3780 -51.2340 315° West 474 545 34,000  Level FlightAware ADS-B
Wed 08:52:05 PM -20.3060 -51.3110 315° West 476 548 34,000  Level FlightAware ADS-B
Wed 08:52:47 PM -20.2450 -51.3780 314° West 476 548 34,000  Level FlightAware ADS-B
Wed 08:53:37 PM -20.1470 -51.4830 315° West 478 550 34,000  Level FlightAware ADS-B
Wed 08:54:19 PM -20.0820 -51.5520 315° West 479 551 34,000  Level FlightAware ADS-B
Wed 08:55:00 PM -20.0180 -51.6210 315° West 480 552 34,000  Level FlightAware ADS-B
Wed 08:55:36 PM -19.9610 -51.6820 315° West 481 554 34,000  Level FlightAware ADS-B
Wed 08:56:16 PM -19.8980 -51.7490 315° West 482 555 34,000  Level FlightAware ADS-B
Wed 08:57:00 PM -19.8290 -51.8230 315° West 484 557 34,000  Level FlightAware ADS-B
Wed 08:57:36 PM -19.7720 -51.8840 315° West 484 557 34,000  Level FlightAware ADS-B
Wed 08:58:16 PM -19.7090 -51.9510 315° West 485 558 34,000  Level FlightAware ADS-B
Wed 08:59:00 PM -19.6390 -52.0250 315° West 487 560 34,000  Level FlightAware ADS-B
Wed 08:59:32 PM -19.5880 -52.0790 315° West 487 560 34,000  Level FlightAware ADS-B
Wed 09:00:16 PM -19.5170 -52.1540 315° West 489 563 34,000  Level FlightAware ADS-B
Wed 09:00:56 PM -19.4530 -52.2220 315° West 489 563 34,000  Level FlightAware ADS-B
Wed 09:01:41 PM -19.3820 -52.2970 315° West 490 564 34,000  Level FlightAware ADS-B
Wed 09:02:21 PM -19.3170 -52.3650 315° West 490 564 34,000  Level FlightAware ADS-B
Wed 09:03:05 PM -19.2460 -52.4410 315° West 490 564 34,000  Level FlightAware ADS-B
Wed 09:03:45 PM -19.1810 -52.5090 315° West 491 565 34,000  Level FlightAware ADS-B
Wed 09:04:21 PM -19.1230 -52.5690 316° Northwest 492 566 34,000  Level FlightAware ADS-B
Wed 09:05:01 PM -19.0580 -52.6380 315° West 492 566 34,000  Level FlightAware ADS-B
Wed 09:05:45 PM -18.9890 -52.7100 315° West 492 566 34,000  Level FlightAware ADS-B
Wed 09:06:26 PM -18.9210 -52.7810 315° West 492 566 34,000  Level FlightAware ADS-B
Wed 09:07:09 PM -18.8520 -52.8540 315° West 492 566 34,000  Level FlightAware ADS-B
Wed 09:07:50 PM -18.7840 -52.9250 315° West 492 566 34,000  Level FlightAware ADS-B
Wed 09:08:33 PM -18.7160 -52.9960 315° West 493 567 34,000  Level FlightAware ADS-B
Wed 09:09:13 PM -18.6510 -53.0640 315° West 493 567 34,000  Level FlightAware ADS-B
Wed 09:09:54 PM -18.5830 -53.1350 315° West 492 566 34,000  Level FlightAware ADS-B
Wed 09:10:38 PM -18.5130 -53.2080 315° West 490 564 34,000  Level FlightAware ADS-B
Wed 09:11:33 PM -18.4330 -53.2910 315° West 489 563 34,000  Level FlightAware ADS-B
Wed 09:12:16 PM -18.3550 -53.3720 315° West 487 560 34,000  Level FlightAware ADS-B
Wed 09:12:56 PM -18.2900 -53.4390 316° Northwest 485 558 34,000  Level FlightAware ADS-B
Wed 09:13:40 PM -18.2200 -53.5110 316° Northwest 484 557 34,000  Level FlightAware ADS-B
Wed 09:14:20 PM -18.1560 -53.5780 315° West 482 555 34,000  Level FlightAware ADS-B
Wed 09:15:04 PM -18.0880 -53.6490 315° West 481 554 34,000  Level FlightAware ADS-B
Wed 09:15:44 PM -18.0230 -53.7160 316° Northwest 478 550 34,000  Level FlightAware ADS-B
Wed 09:16:18 PM -17.9690 -53.7710 316° Northwest 477 549 34,000  Level FlightAware ADS-B
Wed 09:16:58 PM -17.9080 -53.8340 315° West 477 549 34,000  Level FlightAware ADS-B
Wed 09:17:46 PM -17.8300 -53.9140 316° Northwest 477 549 34,000  Level FlightAware ADS-B
Wed 09:18:26 PM -17.7680 -53.9780 315° West 477 549 34,000  Level FlightAware ADS-B
Wed 09:19:15 PM -17.6980 -54.0500 316° Northwest 477 549 34,000  Level FlightAware ADS-B
Wed 09:20:03 PM -17.6350 -54.1170 315° West 477 549 34,000  Level FlightAware ADS-B
Wed 09:20:40 PM -17.5850 -54.1690 315° West 477 549 34,000  Level FlightAware ADS-B
Wed 09:21:28 PM -17.5220 -54.2360 315° West 477 549 34,000  Level FlightAware ADS-B
Wed 09:22:06 PM -17.4710 -54.2880 316° Northwest 477 549 34,000  Level FlightAware ADS-B
Wed 09:22:54 PM -17.4080 -54.3550 315° West 477 549 34,000  Level FlightAware ADS-B
Wed 09:23:30 PM -17.3600 -54.4050 315° West 477 549 34,000  Level FlightAware ADS-B
Wed 09:24:19 PM -17.2950 -54.4730 315° West 477 549 34,000  Level FlightAware ADS-B
Wed 09:24:56 PM -17.2460 -54.5250 315° West 477 549 34,000  Level FlightAware ADS-B
Wed 09:25:32 PM -17.1980 -54.5750 315° West 477 549 34,000  Level FlightAware ADS-B
Wed 09:26:08 PM -17.1500 -54.6250 315° West 477 549 34,000  Level FlightAware ADS-B
Wed 09:26:56 PM -17.0870 -54.6910 315° West 477 549 34,000  Level FlightAware ADS-B
Wed 09:27:32 PM -17.0390 -54.7410 315° West 477 549 34,000  Level FlightAware ADS-B
Wed 09:28:20 PM -16.9750 -54.8080 315° West 477 549 34,000 Level FlightAware ADS-B
Wed 09:30:00 PM -16.8163 -54.9472 320° Northwest  Level Estimated
Wed 09:31:00 PM -16.7211 -55.0306 320° Northwest  Level Estimated
Wed 09:32:00 PM -16.6258 -55.1139 320° Northwest  Level Estimated
Wed 09:33:00 PM -16.5305 -55.1971 320° Northwest  Level Estimated
Wed 09:34:00 PM -16.4352 -55.2803 320° Northwest  Level Estimated
Wed 09:35:00 PM -16.3398 -55.3633 320° Northwest  Level Estimated
Wed 09:36:00 PM -16.2444 -55.4463 320° Northwest  Level Estimated
Wed 09:37:00 PM -16.1490 -55.5292 320° Northwest  Level Estimated
Wed 09:38:00 PM -16.0535 -55.6120 320° Northwest  Level Estimated
Wed 09:39:00 PM -15.9580 -55.6948 320° Northwest  Level Estimated
Wed 09:40:00 PM -15.8624 -55.7774 320° Northwest  Level Estimated
Wed 09:41:00 PM -15.7669 -55.8600 320° Northwest  Level Estimated
Wed 09:42:00 PM -15.6713 -55.9425 320° Northwest  Level Estimated
Wed 09:43:00 PM -15.5757 -56.0250 320° Northwest  Level Estimated
Wed 09:44:00 PM -15.4800 -56.1073 320° Northwest  Level Estimated
Wed 09:45:00 PM -15.3843 -56.1896 320° Northwest  Level Estimated
Wed 09:46:00 PM -15.2886 -56.2718 320° Northwest  Level Estimated
Wed 09:47:00 PM -15.1928 -56.3539 320° Northwest  Level Estimated
Wed 09:48:00 PM -15.0970 -56.4360 320° Northwest  Level Estimated
Wed 09:49:00 PM -15.0012 -56.5180 320° Northwest  Level Estimated
Wed 09:50:00 PM -14.9054 -56.5999 320° Northwest  Level Estimated
Wed 09:51:00 PM -14.8095 -56.6817 320° Northwest  Level Estimated
Wed 09:52:00 PM -14.7136 -56.7635 320° Northwest  Level Estimated
Wed 09:53:00 PM -14.6177 -56.8452 321° Northwest  Level Estimated
Wed 09:54:00 PM -14.5218 -56.9268 321° Northwest  Level Estimated
Wed 09:55:00 PM -14.4258 -57.0083 321° Northwest  Level Estimated
Wed 09:56:00 PM -14.3298 -57.0898 321° Northwest  Level Estimated
Wed 09:57:00 PM -14.2337 -57.1712 321° Northwest  Level Estimated
Wed 09:58:00 PM -14.1377 -57.2526 321° Northwest  Level Estimated
Wed 09:59:00 PM -14.0416 -57.3338 321° Northwest  Level Estimated
Wed 10:00:00 PM -13.9455 -57.4150 321° Northwest  Level Estimated
Wed 10:01:00 PM -13.8493 -57.4962 321° Northwest  Level Estimated
Wed 10:02:00 PM -13.7531 -57.5772 321° Northwest  Level Estimated
Wed 10:03:00 PM -13.6569 -57.6582 321° Northwest  Level Estimated
Wed 10:04:00 PM -13.5607 -57.7392 321° Northwest  Level Estimated
Wed 10:05:00 PM -13.4645 -57.8200 321° Northwest  Level Estimated
Wed 10:06:00 PM -13.3682 -57.9008 321° Northwest  Level Estimated
Wed 10:07:00 PM -13.2719 -57.9816 321° Northwest  Level Estimated
Wed 10:08:00 PM -13.1756 -58.0622 321° Northwest  Level Estimated
Wed 10:09:00 PM -13.0792 -58.1428 321° Northwest  Level Estimated
Wed 10:10:00 PM -12.9828 -58.2234 321° Northwest  Level Estimated
Wed 10:11:00 PM -12.8864 -58.3039 321° Northwest  Level Estimated
Wed 10:12:00 PM -12.7900 -58.3843 321° Northwest  Level Estimated
Wed 10:13:00 PM -12.6935 -58.4647 321° Northwest  Level Estimated
Wed 10:14:00 PM -12.5971 -58.5450 321° Northwest  Level Estimated
Wed 10:15:00 PM -12.5006 -58.6252 321° Northwest  Level Estimated
Wed 10:16:00 PM -12.4040 -58.7054 321° Northwest  Level Estimated
Wed 10:17:00 PM -12.3075 -58.7855 321° Northwest  Level Estimated
Wed 10:18:00 PM -12.2109 -58.8656 321° Northwest  Level Estimated
Wed 10:19:00 PM -12.1143 -58.9456 321° Northwest  Level Estimated
Wed 10:20:00 PM -12.0177 -59.0255 321° Northwest  Level Estimated
Wed 10:21:00 PM -11.9211 -59.1054 321° Northwest  Level Estimated
Wed 10:22:00 PM -11.8244 -59.1852 321° Northwest  Level Estimated
Wed 10:23:00 PM -11.7279 -59.2649 321° Northwest  Level Estimated
Wed 10:24:00 PM -11.6313 -59.3445 321° Northwest  Level Estimated
Wed 10:25:00 PM -11.5348 -59.4240 321° Northwest  Level Estimated
Wed 10:26:00 PM -11.4382 -59.5035 321° Northwest  Level Estimated
Wed 10:27:00 PM -11.3416 -59.5829 321° Northwest  Level Estimated
Wed 10:28:00 PM -11.2450 -59.6622 321° Northwest  Level Estimated
Wed 10:29:00 PM -11.1483 -59.7416 321° Northwest  Level Estimated
Wed 10:30:00 PM -11.0517 -59.8208 321° Northwest  Level Estimated
Wed 10:31:00 PM -10.9550 -59.9000 321° Northwest  Level Estimated
Wed 10:32:00 PM -10.8583 -59.9792 321° Northwest  Level Estimated
Wed 10:33:00 PM -10.7615 -60.0583 321° Northwest  Level Estimated
Wed 10:34:00 PM -10.6648 -60.1373 321° Northwest  Level Estimated
Wed 10:35:00 PM -10.5680 -60.2163 321° Northwest  Level Estimated
Wed 10:36:00 PM -10.4712 -60.2953 321° Northwest  Level Estimated
Wed 10:37:00 PM -10.3744 -60.3742 321° Northwest  Level Estimated
Wed 10:38:00 PM -10.2776 -60.4530 321° Northwest  Level Estimated
Wed 10:39:00 PM -10.1807 -60.5318 321° Northwest  Level Estimated
Wed 10:40:00 PM -10.0839 -60.6106 321° Northwest  Level Estimated
Wed 10:41:00 PM -9.9870 -60.6893 321° Northwest  Level Estimated
Wed 10:42:00 PM -9.8901 -60.7680 321° Northwest  Level Estimated
Wed 10:43:00 PM -9.7932 -60.8466 321° Northwest  Level Estimated
Wed 10:44:00 PM -9.6962 -60.9252 321° Northwest  Level Estimated
Wed 10:45:00 PM -9.5993 -61.0037 321° Northwest  Level Estimated
Wed 10:46:00 PM -9.5023 -61.0822 321° Northwest  Level Estimated
Wed 10:47:00 PM -9.4053 -61.1606 321° Northwest  Level Estimated
Wed 10:48:00 PM -9.3083 -61.2390 321° Northwest  Level Estimated
Wed 10:49:00 PM -9.2113 -61.3173 321° Northwest  Level Estimated
Wed 10:50:00 PM -9.1143 -61.3956 321° Northwest  Level Estimated
Wed 10:51:00 PM -9.0172 -61.4739 321° Northwest  Level Estimated
Wed 10:52:00 PM -8.9201 -61.5521 321° Northwest  Level Estimated
Wed 10:53:00 PM -8.8230 -61.6303 321° Northwest  Level Estimated
Wed 10:54:00 PM -8.7259 -61.7085 322° Northwest  Level Estimated
Wed 10:55:00 PM -8.6288 -61.7865 322° Northwest  Level Estimated
Wed 10:56:00 PM -8.5317 -61.8646 322° Northwest  Level Estimated
Wed 10:57:00 PM -8.4345 -61.9426 322° Northwest  Level Estimated
Wed 10:58:00 PM -8.3374 -62.0206 322° Northwest  Level Estimated
Wed 10:59:00 PM -8.2402 -62.0985 322° Northwest  Level Estimated
Wed 11:00:00 PM -8.1430 -62.1764 322° Northwest  Level Estimated
Wed 11:01:00 PM -8.0458 -62.2543 322° Northwest  Level Estimated
Wed 11:02:00 PM -7.9485 -62.3321 322° Northwest  Level Estimated
Wed 11:03:00 PM -7.8513 -62.4099 322° Northwest  Level Estimated
Wed 11:04:00 PM -7.7540 -62.4877 322° Northwest  Level Estimated
Wed 11:05:00 PM -7.6568 -62.5654 322° Northwest  Level Estimated
Wed 11:06:00 PM -7.5595 -62.6431 322° Northwest  Level Estimated
Wed 11:07:00 PM -7.4622 -62.7207 322° Northwest  Level Estimated
Wed 11:08:00 PM -7.3649 -62.7983 322° Northwest  Level Estimated
Wed 11:09:00 PM -7.2675 -62.8759 322° Northwest  Level Estimated
Wed 11:10:00 PM -7.1702 -62.9535 322° Northwest  Level Estimated
Wed 11:11:00 PM -7.0729 -63.0310 322° Northwest  Level Estimated
Wed 11:12:00 PM -6.9755 -63.1085 322° Northwest  Level Estimated
Wed 11:13:00 PM -6.8781 -63.1859 322° Northwest  Level Estimated
Wed 11:14:00 PM -6.7807 -63.2633 322° Northwest  Level Estimated
Wed 11:15:00 PM -6.6833 -63.3407 322° Northwest  Level Estimated
Wed 11:16:00 PM -6.5859 -63.4180 322° Northwest  Level Estimated
Wed 11:17:00 PM -6.4885 -63.4954 322° Northwest  Level Estimated
Wed 11:18:00 PM -6.3912 -63.5725 322° Northwest  Level Estimated
Wed 11:19:00 PM -6.2939 -63.6497 322° Northwest  Level Estimated
Wed 11:20:00 PM -6.1966 -63.7268 322° Northwest  Level Estimated
Wed 11:21:00 PM -6.0993 -63.8038 322° Northwest  Level Estimated
Wed 11:22:00 PM -6.0020 -63.8809 322° Northwest  Level Estimated
Wed 11:23:00 PM -5.9047 -63.9579 322° Northwest  Level Estimated
Wed 11:24:00 PM -5.8073 -64.0349 322° Northwest  Level Estimated
Wed 11:25:00 PM -5.7100 -64.1118 322° Northwest  Level Estimated
Wed 11:26:00 PM -5.6126 -64.1888 322° Northwest  Level Estimated
Wed 11:27:00 PM -5.5153 -64.2657 322° Northwest  Level Estimated
Wed 11:28:00 PM -5.4179 -64.3426 322° Northwest  Level Estimated
Wed 11:29:00 PM -5.3205 -64.4194 322° Northwest  Level Estimated
Wed 11:30:00 PM -5.2231 -64.4963 322° Northwest  Level Estimated
Wed 11:31:00 PM -5.1257 -64.5731 322° Northwest  Level Estimated
Wed 11:32:00 PM -5.0283 -64.6499 322° Northwest  Level Estimated
Wed 11:33:00 PM -4.9309 -64.7266 322° Northwest  Level Estimated
Wed 11:34:00 PM -4.8333 -64.8035 322° Northwest  Level Estimated
Wed 11:35:00 PM -4.7356 -64.8804 322° Northwest  Level Estimated
Wed 11:36:00 PM -4.6380 -64.9572 322° Northwest  Level Estimated
Wed 11:37:00 PM -4.5404 -65.0340 322° Northwest  Level Estimated
Wed 11:38:00 PM -4.4428 -65.1108 322° Northwest  Level Estimated
Wed 11:39:00 PM -4.3451 -65.1876 322° Northwest  Level Estimated
Wed 11:40:00 PM -4.2475 -65.2643 322° Northwest  Level Estimated
Wed 11:41:00 PM -4.1498 -65.3411 322° Northwest  Level Estimated
Wed 11:42:00 PM -4.0521 -65.4178 322° Northwest  Level Estimated
Wed 11:43:00 PM -3.9545 -65.4945 322° Northwest  Level Estimated
Wed 11:44:00 PM -3.8568 -65.5712 322° Northwest  Level Estimated
Wed 11:45:00 PM -3.7591 -65.6478 322° Northwest  Level Estimated
Wed 11:46:00 PM -3.6616 -65.7243 322° Northwest  Level Estimated
Wed 11:47:00 PM -3.5640 -65.8008 322° Northwest  Level Estimated
Wed 11:48:00 PM -3.4665 -65.8773 322° Northwest  Level Estimated
Wed 11:49:00 PM -3.3690 -65.9538 322° Northwest  Level Estimated
Wed 11:50:00 PM -3.2714 -66.0302 322° Northwest  Level Estimated
Wed 11:51:00 PM -3.1739 -66.1066 322° Northwest  Level Estimated
Wed 11:52:00 PM -3.0763 -66.1830 322° Northwest  Level Estimated
Wed 11:53:00 PM -2.9787 -66.2594 322° Northwest  Level Estimated
Wed 11:54:00 PM -2.8812 -66.3358 322° Northwest  Level Estimated
Wed 11:55:00 PM -2.7836 -66.4122 322° Northwest  Level Estimated
Wed 11:56:00 PM -2.6860 -66.4886 322° Northwest  Level Estimated
Wed 11:57:00 PM -2.5884 -66.5649 322° Northwest  Level Estimated
Wed 11:58:00 PM -2.4908 -66.6413 322° Northwest  Level Estimated
Wed 11:59:00 PM -2.3932 -66.7176 322° Northwest  Level Estimated
Thu 12:00:00 AM -2.2956 -66.7939 322° Northwest  Level Estimated
Thu 12:01:00 AM -2.1980 -66.8702 322° Northwest  Level Estimated
Thu 12:02:00 AM -2.1004 -66.9465 322° Northwest  Level Estimated
Thu 12:03:00 AM -2.0028 -67.0228 322° Northwest  Level Estimated
Thu 12:04:00 AM -1.9052 -67.0991 322° Northwest  Level Estimated
Thu 12:05:00 AM -1.8076 -67.1753 322° Northwest  Level Estimated
Thu 12:06:00 AM -1.7099 -67.2516 322° Northwest  Level Estimated
Thu 12:07:00 AM -1.6123 -67.3279 322° Northwest  Level Estimated
Thu 12:08:00 AM -1.5147 -67.4041 322° Northwest  Level Estimated
Thu 12:09:00 AM -1.4171 -67.4803 322° Northwest  Level Estimated
Thu 12:10:00 AM -1.3194 -67.5566 322° Northwest  Level Estimated
Thu 12:11:00 AM -1.2218 -67.6328 322° Northwest  Level Estimated
Thu 12:12:00 AM -1.1242 -67.7090 322° Northwest  Level Estimated
Thu 12:13:00 AM -1.0265 -67.7852 322° Northwest  Level Estimated
Thu 12:14:00 AM -0.9289 -67.8615 322° Northwest  Level Estimated
Thu 12:15:00 AM -0.8313 -67.9377 322° Northwest  Level Estimated
Thu 12:16:00 AM -0.7336 -68.0139 322° Northwest  Level Estimated
Thu 12:17:00 AM -0.6360 -68.0901 322° Northwest  Level Estimated
Thu 12:18:00 AM -0.5383 -68.1663 322° Northwest  Level Estimated
Thu 12:19:00 AM -0.4407 -68.2425 322° Northwest  Level Estimated
Thu 12:20:00 AM -0.3430 -68.3186 322° Northwest  Level Estimated
Thu 12:21:00 AM -0.2454 -68.3948 322° Northwest  Level Estimated
Thu 12:22:00 AM -0.1477 -68.4710 322° Northwest  Level Estimated
Thu 12:23:00 AM -0.0501 -68.5472 322° Northwest  Level Estimated
Thu 12:24:00 AM 0.0476 -68.6234 322° Northwest  Level Estimated
Thu 12:25:00 AM 0.1452 -68.6996 322° Northwest  Level Estimated
Thu 12:26:00 AM 0.2429 -68.7758 322° Northwest  Level Estimated
Thu 12:27:00 AM 0.3405 -68.8520 322° Northwest  Level Estimated
Thu 12:28:00 AM 0.4382 -68.9282 322° Northwest  Level Estimated
Thu 12:29:00 AM 0.5358 -69.0044 322° Northwest  Level Estimated
Thu 12:30:00 AM 0.6335 -69.0806 322° Northwest  Level Estimated
Thu 12:31:00 AM 0.7311 -69.1568 322° Northwest  Level Estimated
Thu 12:32:00 AM 0.8288 -69.2330 322° Northwest  Level Estimated
Thu 12:33:00 AM 0.9264 -69.3092 322° Northwest  Level Estimated
Thu 12:34:00 AM 1.0241 -69.3854 322° Northwest  Level Estimated
Thu 12:35:00 AM 1.1217 -69.4616 322° Northwest  Level Estimated
Thu 12:36:00 AM 1.2193 -69.5378 322° Northwest  Level Estimated
Thu 12:37:00 AM 1.3170 -69.6140 322° Northwest  Level Estimated
Thu 12:38:00 AM 1.4146 -69.6903 322° Northwest  Level Estimated
Thu 12:39:00 AM 1.5122 -69.7665 322° Northwest  Level Estimated
Thu 12:40:00 AM 1.6099 -69.8428 322° Northwest  Level Estimated
Thu 12:41:00 AM 1.7075 -69.9190 322° Northwest  Level Estimated
Thu 12:42:00 AM 1.8051 -69.9953 322° Northwest  Level Estimated
Thu 12:43:00 AM 1.9027 -70.0715 322° Northwest  Level Estimated
Thu 12:44:00 AM 2.0003 -70.1478 322° Northwest  Level Estimated
Thu 12:45:00 AM 2.0979 -70.2241 322° Northwest  Level Estimated
Thu 12:46:00 AM 2.1955 -70.3004 322° Northwest  Level Estimated
Thu 12:47:00 AM 2.2931 -70.3767 322° Northwest  Level Estimated
Thu 12:48:00 AM 2.3907 -70.4530 322° Northwest  Level Estimated
Thu 12:49:00 AM 2.4883 -70.5294 322° Northwest  Level Estimated
Thu 12:50:00 AM 2.5859 -70.6057 322° Northwest  Level Estimated
Thu 12:51:00 AM 2.6835 -70.6821 322° Northwest  Level Estimated
Thu 12:52:00 AM 2.7811 -70.7584 322° Northwest  Level Estimated
Thu 12:53:00 AM 2.8787 -70.8348 322° Northwest  Level Estimated
Thu 12:54:00 AM 2.9763 -70.9112 322° Northwest  Level Estimated
Thu 12:55:00 AM 3.0738 -70.9876 322° Northwest  Level Estimated
Thu 12:56:00 AM 3.1714 -71.0640 322° Northwest  Level Estimated
Thu 12:57:00 AM 3.2689 -71.1404 322° Northwest  Level Estimated
Thu 12:58:00 AM 3.3665 -71.2169 322° Northwest  Level Estimated
Thu 12:59:00 AM 3.4640 -71.2933 322° Northwest  Level Estimated
Thu 01:00:00 AM 3.5616 -71.3698 322° Northwest  Level Estimated
Thu 01:01:00 AM 3.6591 -71.4463 322° Northwest  Level Estimated
Thu 01:02:00 AM 3.7566 -71.5228 322° Northwest  Level Estimated
Thu 01:03:00 AM 3.8542 -71.5993 322° Northwest  Level Estimated
Thu 01:04:00 AM 3.9517 -71.6759 322° Northwest  Level Estimated
Thu 01:05:00 AM 4.0492 -71.7524 322° Northwest  Level Estimated
Thu 01:06:00 AM 4.1467 -71.8290 322° Northwest  Level Estimated
Thu 01:07:00 AM 4.2442 -71.9056 322° Northwest  Level Estimated
Thu 01:08:00 AM 4.3416 -71.9822 322° Northwest  Level Estimated
Thu 01:09:00 AM 4.4391 -72.0589 322° Northwest  Level Estimated
Thu 01:10:00 AM 4.5366 -72.1355 322° Northwest  Level Estimated
Thu 01:11:00 AM 4.6340 -72.2122 322° Northwest  Level Estimated
Thu 01:12:00 AM 4.7315 -72.2889 322° Northwest  Level Estimated
Thu 01:13:00 AM 4.8289 -72.3656 322° Northwest  Level Estimated
Thu 01:14:00 AM 4.9264 -72.4424 322° Northwest  Level Estimated
Thu 01:14:33 AM 5.0570 -72.8450 322° Northwest 449 517 36,000  Level FlightAware ADS-B
Thu 01:15:00 AM 5.0238 -72.5191 322° Northwest  Level Estimated
Thu 01:15:13 AM 5.1270 -72.8870 329° Northwest 447 514 36,000  Level FlightAware ADS-B
Thu 01:15:59 AM 5.2140 -72.9270 335° Northwest 444 511 36,000  Level FlightAware ADS-B
Thu 01:16:39 AM 5.2930 -72.9510 343° North 439 505 36,000  Level FlightAware ADS-B
Thu 01:17:19 AM 5.3720 -72.9660 349° North 441 507 36,000  Level FlightAware ADS-B
Thu 01:18:03 AM 5.4620 -72.9830 349° North 441 507 36,000  Level FlightAware ADS-B
Thu 01:18:45 AM 5.5440 -73.0000 348° North 442 509 36,000  Level FlightAware ADS-B
Thu 01:19:21 AM 5.6180 -73.0140 349° North 442 509 36,000  Level FlightAware ADS-B
Thu 01:20:15 AM 5.7170 -73.0340 349° North 443 510 36,000  Level FlightAware ADS-B
Thu 01:20:51 AM 5.7780 -73.0480 347° North 443 510 36,000  Level FlightAware ADS-B
Thu 01:21:39 AM 5.8600 -73.0650 348° North 443 510 36,000  Level FlightAware ADS-B
Thu 01:22:16 AM 5.9230 -73.0790 348° North 443 510 36,000  Level FlightAware ADS-B
Thu 01:23:04 AM 6.0050 -73.0960 348° North 443 510 36,000  Level FlightAware ADS-B
Thu 01:23:40 AM 6.0660 -73.1090 348° North 443 510 36,000  Level FlightAware ADS-B
Thu 01:24:28 AM 6.1480 -73.1270 348° North 443 510 36,000  Level FlightAware ADS-B
Thu 01:25:04 AM 6.2090 -73.1400 348° North 443 510 36,000  Level FlightAware ADS-B
Thu 01:25:52 AM 6.2910 -73.1570 348° North 443 510 36,000  Level FlightAware ADS-B
Thu 01:27:15 AM 6.5650 -73.2210 347° North 443 510 36,000  Level FlightAware ADS-B
Thu 01:27:57 AM 6.6450 -73.2510 340° North 443 510 36,000  Level FlightAware ADS-B
Thu 01:28:52 AM 6.7420 -73.2890 339° North 442 509 36,000  Level FlightAware ADS-B
Thu 01:29:33 AM 6.8230 -73.3190 340° North 443 510 36,000  Level FlightAware ADS-B
Thu 01:30:19 AM 6.9150 -73.3540 339° North 443 510 36,000  Level FlightAware ADS-B
Thu 01:30:58 AM 6.9900 -73.3830 339° North 443 510 36,000  Level FlightAware ADS-B
Thu 01:31:33 AM 7.0520 -73.4060 340° North 444 511 36,000  Level FlightAware ADS-B
Thu 01:32:13 AM 7.1390 -73.4390 339° North 444 511 36,000  Level FlightAware ADS-B
Thu 01:32:51 AM 7.2030 -73.4630 340° North 444 511 36,000  Level FlightAware ADS-B
Thu 01:33:27 AM 7.2620 -73.4860 339° North 444 511 36,000  Level FlightAware ADS-B
Thu 01:34:13 AM 7.3680 -73.5230 341° North 446 513 36,000  Level FlightAware ADS-B
Thu 01:34:58 AM 7.4580 -73.5560 340° North 445 512 36,000  Level FlightAware ADS-B
Thu 01:35:33 AM 7.5250 -73.5810 340° North 445 512 36,000  Level FlightAware ADS-B
Thu 01:36:13 AM 7.6040 -73.6090 341° North 446 513 36,000  Level FlightAware ADS-B
Thu 01:37:08 AM 7.7120 -73.6490 340° North 446 513 36,000  Level FlightAware ADS-B
Thu 01:37:53 AM 7.7990 -73.6800 341° North 446 513 36,000  Level FlightAware ADS-B
Thu 01:38:33 AM 7.8790 -73.7010 345° North 444 511 36,000  Level FlightAware ADS-B
Thu 01:39:23 AM 7.9770 -73.7140 353° North 443 510 36,000  Level FlightAware ADS-B
Thu 01:40:08 AM 8.0730 -73.7270 352° North 444 511 36,000  Level FlightAware ADS-B
Thu 01:40:43 AM 8.1430 -73.7360 353° North 445 512 36,000  Level FlightAware ADS-B
Thu 01:41:28 AM 8.2360 -73.7490 352° North 445 512 36,000  Level FlightAware ADS-B
Thu 01:42:08 AM 8.3160 -73.7590 353° North 445 512 36,000  Level FlightAware ADS-B
Thu 01:42:53 AM 8.4100 -73.7720 352° North 445 512 36,000  Level FlightAware ADS-B
Thu 01:43:33 AM 8.4920 -73.7830 352° North 443 510 36,000  Level FlightAware ADS-B
Thu 01:44:13 AM 8.5720 -73.7940 352° North 441 507 36,000  Level FlightAware ADS-B
Thu 01:44:58 AM 8.6640 -73.8070 352° North 439 505 36,000  Level FlightAware ADS-B
Thu 01:45:38 AM 8.7450 -73.8190 352° North 436 502 36,000  Level FlightAware ADS-B
Thu 01:46:23 AM 8.8350 -73.8310 352° North 436 502 36,000  Level FlightAware ADS-B
Thu 01:47:08 AM 8.9240 -73.8430 352° North 435 501 36,000  Level FlightAware ADS-B
Thu 01:47:48 AM 9.0040 -73.8520 354° North 437 503 36,000  Level FlightAware ADS-B
Thu 01:48:28 AM 9.0860 -73.8610 354° North 438 504 36,000  Level FlightAware ADS-B
Thu 01:49:08 AM 9.1680 -73.8710 353° North 439 505 36,000  Level FlightAware ADS-B
Thu 01:49:48 AM 9.2470 -73.8870 349° North 438 504 36,000  Level FlightAware ADS-B
Thu 01:50:28 AM 9.3260 -73.9020 349° North 436 502 36,000  Level FlightAware ADS-B
Thu 01:51:08 AM 9.4050 -73.9220 346° North 436 502 36,000  Level FlightAware ADS-B
Thu 01:51:53 AM 9.4910 -73.9440 346° North 437 503 36,000  Level FlightAware ADS-B
Thu 01:52:33 AM 9.5700 -73.9720 341° North 440 506 36,000  Level FlightAware ADS-B
Thu 01:53:13 AM 9.6460 -74.0030 338° Northwest 440 506 36,000  Level FlightAware ADS-B
Thu 01:53:58 AM 9.7310 -74.0360 339° North 442 509 36,000  Level FlightAware ADS-B
Thu 01:54:33 AM 9.7970 -74.0630 338° Northwest 443 510 36,000  Level FlightAware ADS-B
Thu 01:55:13 AM 9.8720 -74.1000 334° Northwest 444 511 36,000  Level FlightAware ADS-B
Thu 01:55:53 AM 9.9450 -74.1360 334° Northwest 445 512 36,000  Level FlightAware ADS-B
Thu 01:56:33 AM 10.0200 -74.1750 333° Northwest 446 513 36,000  Level FlightAware ADS-B
Thu 01:57:13 AM 10.0890 -74.2220 326° Northwest 444 511 36,000  Level FlightAware ADS-B
Thu 01:57:58 AM 10.1590 -74.2830 319° Northwest 445 512 36,000  Level FlightAware ADS-B
Thu 01:58:38 AM 10.2190 -74.3380 318° Northwest 445 512 36,000  Level FlightAware ADS-B
Thu 01:59:18 AM 10.2790 -74.3950 317° Northwest 445 512 36,000  Level FlightAware ADS-B
Thu 02:00:58 AM 10.3990 -74.5400 318° Northwest 444 511 36,000  Level FlightAware ADS-B
Thu 02:01:00 AM 10.4361 -74.5375 318° Northwest  Level Estimated
Thu 02:01:42 AM 10.4480 -74.6050 307° West 439 505 36,000  Level FlightAware ADS-B
Thu 02:02:28 AM 10.5230 -74.7010 308° West 439 505 36,000  Level FlightAware ADS-B
Thu 02:03:08 AM 10.5690 -74.7600 308° West 437 503 36,000  Level FlightAware ADS-B
Thu 02:03:48 AM 10.6240 -74.8300 309° West 434 499 36,000  Level FlightAware ADS-B
Thu 02:04:33 AM 10.6810 -74.9030 308° West 435 501 36,000  Level FlightAware ADS-B
Thu 02:05:18 AM 10.7370 -74.9750 308° West 436 502 36,000  Level FlightAware ADS-B
Thu 02:05:58 AM 10.7870 -75.0400 308° West 437 503 36,000  Level FlightAware ADS-B
Thu 02:06:33 AM 10.8310 -75.0960 309° West 436 502 36,000  Level FlightAware ADS-B
Thu 02:07:14 AM 10.8810 -75.1610 308° West 435 501 36,000  Level FlightAware ADS-B
Thu 02:07:58 AM 10.9370 -75.2330 308° West 435 501 36,000  Level FlightAware ADS-B
Thu 02:08:38 AM 10.9870 -75.2970 309° West 437 503 36,000  Level FlightAware ADS-B
Thu 02:09:23 AM 11.0440 -75.3700 309° West 439 505 36,000  Level FlightAware ADS-B
Thu 02:09:58 AM 11.0880 -75.4270 308° West 442 509 36,000  Level FlightAware ADS-B
Thu 02:10:48 AM 11.1520 -75.5090 309° West 444 511 36,000  Level FlightAware ADS-B
Thu 02:11:33 AM 11.1860 -75.5530 308° West 444 511 36,000  Level FlightAware ADS-B
Thu 02:12:13 AM 11.2600 -75.6480 308° West 444 511 36,000  Level FlightAware ADS-B
Thu 02:12:58 AM 11.3170 -75.7230 308° West 444 511 36,000  Level FlightAware ADS-B
Thu 02:13:43 AM 11.3690 -75.7890 309° West 443 510 36,000  Level FlightAware ADS-B
Thu 02:14:26 AM 11.4230 -75.8600 308° West 443 510 36,000  Level FlightAware ADS-B
Thu 02:16:04 AM 11.5350 -76.0060 319° Northwest 442 509 36,000  Level FlightAware ADS-B
Thu 02:17:00 AM 11.6615 -76.0745 319° Northwest  Level Estimated
Thu 02:17:46 AM 11.6440 -76.1480 308° West 442 509 36,000  Level FlightAware ADS-B
Thu 02:18:33 AM 11.6950 -76.2140 308° West 442 509 36,000  Level FlightAware ADS-B
Thu 02:19:09 AM 11.7330 -76.2640 308° West 442 509 36,000  Level FlightAware ADS-B
Thu 02:19:57 AM 11.7850 -76.3320 308° West 442 509 36,000  Level FlightAware ADS-B
Thu 02:20:33 AM 11.8230 -76.3820 308° West 442 509 36,000  Level FlightAware ADS-B
Thu 02:21:21 AM 11.8740 -76.4490 308° West 442 509 36,000  Level FlightAware ADS-B
Thu 02:21:58 AM 11.9140 -76.5010 308° West 442 509 36,000  Level FlightAware ADS-B
Thu 02:22:46 AM 11.9650 -76.5680 308° West 442 509 36,000  Level FlightAware ADS-B
Thu 02:23:22 AM 12.0040 -76.6190 308° West 442 509 36,000  Level FlightAware ADS-B
Thu 02:24:10 AM 12.0550 -76.6860 308° West 442 509 36,000  Level FlightAware ADS-B
Thu 02:24:46 AM 12.0940 -76.7360 309° West 442 509 36,000 24 Level FlightAware ADS-B
Thu 02:27:00 AM 12.3024 -76.9221 319° Northwest  Level Estimated
Thu 02:28:00 AM 12.3956 -77.0056 319° Northwest  Level Estimated
Thu 02:29:00 AM 12.4888 -77.0891 319° Northwest  Level Estimated
Thu 02:30:00 AM 12.5820 -77.1726 319° Northwest  Level Estimated
Thu 02:31:00 AM 12.6752 -77.2563 319° Northwest  Level Estimated
Thu 02:32:00 AM 12.7683 -77.3400 319° Northwest  Level Estimated
Thu 02:33:00 AM 12.8615 -77.4237 319° Northwest  Level Estimated
Thu 02:34:00 AM 12.9546 -77.5075 319° Northwest  Level Estimated
Thu 02:35:00 AM 13.0476 -77.5914 319° Northwest  Level Estimated
Thu 02:36:00 AM 13.1407 -77.6753 319° Northwest  Level Estimated
Thu 02:37:00 AM 13.2337 -77.7593 319° Northwest  Level Estimated
Thu 02:38:00 AM 13.3267 -77.8434 319° Northwest  Level Estimated
Thu 02:39:00 AM 13.4196 -77.9275 319° Northwest  Level Estimated
Thu 02:40:00 AM 13.5126 -78.0117 319° Northwest  Level Estimated
Thu 02:41:00 AM 13.6055 -78.0959 319° Northwest  Level Estimated
Thu 02:42:00 AM 13.6983 -78.1803 319° Northwest  Level Estimated
Thu 02:43:00 AM 13.7912 -78.2647 319° Northwest  Level Estimated
Thu 02:44:00 AM 13.8840 -78.3491 319° Northwest  Level Estimated
Thu 02:45:00 AM 13.9768 -78.4336 319° Northwest  Level Estimated
Thu 02:46:00 AM 14.0695 -78.5182 319° Northwest  Level Estimated
Thu 02:47:00 AM 14.1623 -78.6029 318° Northwest  Level Estimated
Thu 02:48:00 AM 14.2550 -78.6876 318° Northwest  Level Estimated
Thu 02:49:00 AM 14.3476 -78.7724 318° Northwest  Level Estimated
Thu 02:50:00 AM 14.4403 -78.8573 318° Northwest  Level Estimated
Thu 02:51:00 AM 14.5329 -78.9422 318° Northwest  Level Estimated
Thu 02:52:00 AM 14.6255 -79.0273 318° Northwest  Level Estimated
Thu 02:53:00 AM 14.7180 -79.1123 318° Northwest  Level Estimated
Thu 02:54:00 AM 14.8105 -79.1975 318° Northwest  Level Estimated
Thu 02:55:00 AM 14.9030 -79.2827 318° Northwest  Level Estimated
Thu 02:56:00 AM 14.9955 -79.3680 318° Northwest  Level Estimated
Thu 02:57:00 AM 15.0879 -79.4534 318° Northwest  Level Estimated
Thu 02:58:00 AM 15.1803 -79.5389 318° Northwest  Level Estimated
Thu 02:59:00 AM 15.2726 -79.6244 318° Northwest  Level Estimated
Thu 03:00:00 AM 15.3650 -79.7100 318° Northwest  Level Estimated
Thu 03:01:00 AM 15.4573 -79.7957 318° Northwest  Level Estimated
Thu 03:02:00 AM 15.5495 -79.8814 318° Northwest  Level Estimated
Thu 03:03:00 AM 15.6410 -79.9665 318° Northwest  Level Estimated
Thu 03:04:00 AM 15.7314 -80.0508 318° Northwest  Level Estimated
Thu 03:05:00 AM 15.8219 -80.1352 318° Northwest  Level Estimated
Thu 03:06:00 AM 15.9123 -80.2196 318° Northwest  Level Estimated
Thu 03:07:00 AM 16.0026 -80.3042 318° Northwest  Level Estimated
Thu 03:08:00 AM 16.0930 -80.3888 318° Northwest  Level Estimated
Thu 03:09:00 AM 16.1833 -80.4734 318° Northwest  Level Estimated
Thu 03:10:00 AM 16.2735 -80.5582 318° Northwest  Level Estimated
Thu 03:11:00 AM 16.3638 -80.6430 318° Northwest  Level Estimated
Thu 03:12:00 AM 16.4540 -80.7279 318° Northwest  Level Estimated
Thu 03:13:00 AM 16.5441 -80.8129 318° Northwest  Level Estimated
Thu 03:14:00 AM 16.6343 -80.8980 318° Northwest  Level Estimated
Thu 03:15:00 AM 16.7244 -80.9831 318° Northwest  Level Estimated
Thu 03:16:00 AM 16.8144 -81.0684 318° Northwest  Level Estimated
Thu 03:17:00 AM 16.9045 -81.1537 318° Northwest  Level Estimated
Thu 03:18:00 AM 16.9945 -81.2391 318° Northwest  Level Estimated
Thu 03:19:00 AM 17.0844 -81.3246 318° Northwest  Level Estimated
Thu 03:20:00 AM 17.1743 -81.4101 318° Northwest  Level Estimated
Thu 03:21:00 AM 17.2642 -81.4958 318° Northwest  Level Estimated
Thu 03:22:00 AM 17.3541 -81.5815 318° Northwest  Level Estimated
Thu 03:23:00 AM 17.4439 -81.6673 318° Northwest  Level Estimated
Thu 03:24:00 AM 17.5337 -81.7532 318° Northwest  Level Estimated
Thu 03:25:00 AM 17.6233 -81.8390 318° Northwest  Level Estimated
Thu 03:26:00 AM 17.7128 -81.9249 318° Northwest  Level Estimated
Thu 03:27:00 AM 17.8023 -82.0109 318° Northwest  Level Estimated
Thu 03:28:00 AM 17.8918 -82.0970 318° Northwest  Level Estimated
Thu 03:29:00 AM 17.9812 -82.1832 318° Northwest  Level Estimated
Thu 03:30:00 AM 18.0706 -82.2695 317° Northwest  Level Estimated
Thu 03:31:00 AM 18.1600 -82.3558 317° Northwest  Level Estimated
Thu 03:32:00 AM 18.2493 -82.4423 317° Northwest  Level Estimated
Thu 03:33:00 AM 18.3386 -82.5288 317° Northwest  Level Estimated
Thu 03:34:00 AM 18.4278 -82.6154 317° Northwest  Level Estimated
Thu 03:35:00 AM 18.5170 -82.7021 317° Northwest  Level Estimated
Thu 03:36:00 AM 18.6062 -82.7889 317° Northwest  Level Estimated
Thu 03:37:00 AM 18.6954 -82.8758 317° Northwest  Level Estimated
Thu 03:38:00 AM 18.7844 -82.9628 317° Northwest  Level Estimated
Thu 03:39:00 AM 18.8735 -83.0499 317° Northwest  Level Estimated
Thu 03:40:00 AM 18.9625 -83.1370 317° Northwest  Level Estimated
Thu 03:41:00 AM 19.0515 -83.2243 317° Northwest  Level Estimated
Thu 03:42:00 AM 19.1404 -83.3116 317° Northwest  Level Estimated
Thu 03:43:00 AM 19.2293 -83.3991 317° Northwest  Level Estimated
Thu 03:44:00 AM 19.3181 -83.4866 317° Northwest  Level Estimated
Thu 03:45:00 AM 19.4069 -83.5743 317° Northwest  Level Estimated
Thu 03:46:00 AM 19.4957 -83.6620 317° Northwest  Level Estimated
Thu 03:47:00 AM 19.5844 -83.7498 317° Northwest  Level Estimated
Thu 03:47:26 AM 18.7060 -84.6630 317° Northwest 445 512 38,000  Level FlightAware ADS-B
Thu 03:48:00 AM 19.6730 -83.8378 317° Northwest  Level Estimated
Thu 03:48:02 AM 18.7530 -84.7070 318° Northwest 445 512 38,000  Level FlightAware ADS-B
Thu 03:48:48 AM 18.9810 -84.9350 317° Northwest 438 504 38,000  Level FlightAware ADS-B
Thu 03:49:45 AM 19.0560 -85.0260 311° West 438 504 38,000  Level FlightAware ADS-B
Thu 03:50:22 AM 19.0990 -85.0810 310° West 438 504 38,000  Level FlightAware ADS-B
Thu 03:51:00 AM 19.1530 -85.1470 311° West 437 503 38,000  Level FlightAware ADS-B
Thu 03:51:45 AM 19.2140 -85.2210 311° West 436 502 38,000  Level FlightAware ADS-B
Thu 03:52:25 AM 19.2660 -85.2850 311° West 434 499 38,000  Level FlightAware ADS-B
Thu 03:53:10 AM 19.3260 -85.3590 311° West 433 498 38,000  Level FlightAware ADS-B
Thu 03:53:50 AM 19.3790 -85.4230 311° West 432 497 38,000  Level FlightAware ADS-B
Thu 03:54:30 AM 19.4310 -85.4880 310° West 432 497 38,000  Level FlightAware ADS-B
Thu 03:55:10 AM 19.4840 -85.5510 312° West 430 495 38,000  Level FlightAware ADS-B
Thu 03:55:50 AM 19.5350 -85.6130 311° West 431 496 38,000  Level FlightAware ADS-B
Thu 03:56:31 AM 19.5890 -85.6790 311° West 430 495 38,000  Level FlightAware ADS-B
Thu 03:57:11 AM 19.6420 -85.7430 311° West 430 495 38,000  Level FlightAware ADS-B
Thu 03:57:56 AM 19.7000 -85.8130 311° West 431 496 38,000  Level FlightAware ADS-B
Thu 03:58:36 AM 19.7530 -85.8780 311° West 433 498 38,000  Level FlightAware ADS-B
Thu 03:59:19 AM 19.8100 -85.9480 311° West 434 499 38,000  Level FlightAware ADS-B
Thu 03:59:56 AM 19.8580 -86.0070 311° West 437 503 38,000  Level FlightAware ADS-B
Thu 04:00:53 AM 19.9400 -86.0950 315° West 439 505 38,000  Level FlightAware ADS-B
Thu 04:01:33 AM 20.0070 -86.1450 325° Northwest 440 506 38,000  Level FlightAware ADS-B
Thu 04:02:18 AM 20.0800 -86.2020 324° Northwest 440 506 38,000  Level FlightAware ADS-B
Thu 04:02:59 AM 20.1470 -86.2570 322° Northwest 442 509 38,000  Level FlightAware ADS-B
Thu 04:03:35 AM 20.2050 -86.3040 323° Northwest 442 509 38,000  Level FlightAware ADS-B
Thu 04:04:17 AM 20.2740 -86.3590 323° Northwest 442 509 38,000  Level FlightAware ADS-B
Thu 04:04:58 AM 20.3400 -86.4110 324° Northwest 442 509 38,000  Level FlightAware ADS-B
Thu 04:05:41 AM 20.4130 -86.4690 323° Northwest 444 511 38,000  Level FlightAware ADS-B
Thu 04:06:22 AM 20.4770 -86.5210 323° Northwest 445 512 38,000  Level FlightAware ADS-B
Thu 04:07:02 AM 20.5440 -86.5740 323° Northwest 446 513 38,000  Level FlightAware ADS-B
Thu 04:07:46 AM 20.6180 -86.6330 323° Northwest 447 514 38,000  Level FlightAware ADS-B
Thu 04:08:28 AM 20.6890 -86.6900 323° Northwest 447 514 38,000  Level FlightAware ADS-B
Thu 04:09:08 AM 20.7560 -86.7440 323° Northwest 447 514 38,000  Level FlightAware ADS-B
Thu 04:09:53 AM 20.8290 -86.8030 323° Northwest 446 513 38,000  Level FlightAware ADS-B
Thu 04:10:32 AM 20.8940 -86.8550 323° Northwest 444 511 38,000  Level FlightAware ADS-B
Thu 04:11:31 AM 20.8670 -86.8330 143° Southeast 446 513 38,000  Level FlightAware ADS-B
Thu 04:12:18 AM 21.0020 -86.9410 323° Northwest 444 511 38,000  Level FlightAware ADS-B
Thu 04:13:02 AM 21.0680 -86.9950 323° Northwest 444 511 38,000  Level FlightAware ADS-B
Thu 04:13:39 AM 21.1240 -87.0400 323° Northwest 443 510 38,000  Level FlightAware ADS-B
Thu 04:14:16 AM 21.1880 -87.0910 323° Northwest 442 509 38,000  Level FlightAware ADS-B
Thu 04:15:41 AM 21.3340 -87.2110 321° Northwest 441 507 38,000  Level FlightAware ADS-B
Thu 04:16:00 AM 21.3539 -87.2328 321° Northwest  Level Estimated
Thu 04:17:00 AM 21.4496 -87.3148 321° Northwest  Level Estimated
Thu 04:18:09 AM 21.6180 -87.4410 323° Northwest 453 521 38,000  Level FlightAware ADS-B
Thu 04:18:57 AM 21.6630 -87.4770 323° Northwest 453 521 38,000  Level FlightAware ADS-B
Thu 04:19:34 AM 21.7280 -87.5300 323° Northwest 454 522 38,000  Level FlightAware ADS-B
Thu 04:20:16 AM 21.8130 -87.5990 323° Northwest 455 524 38,000  Level FlightAware ADS-B
Thu 04:21:01 AM 21.8780 -87.6520 323° Northwest 456 525 38,000  Level FlightAware ADS-B
Thu 04:21:42 AM 21.9500 -87.7110 323° Northwest 455 524 38,000  Level FlightAware ADS-B
Thu 04:22:16 AM 22.0070 -87.7580 323° Northwest 455 524 38,000  Level FlightAware ADS-B
Thu 04:22:58 AM 22.0780 -87.8160 323° Northwest 454 522 38,000  Level FlightAware ADS-B
Thu 04:23:43 AM 22.1590 -87.8830 323° Northwest 454 522 38,000  Level FlightAware ADS-B
Thu 04:24:21 AM 22.2170 -87.9310 323° Northwest 453 521 38,000  Level FlightAware ADS-B
Thu 04:25:06 AM 22.3070 -88.0050 323° Northwest 452 520 38,000  Level FlightAware ADS-B
Thu 04:25:52 AM 22.3810 -88.0660 323° Northwest 452 520 38,000  Level FlightAware ADS-B
Thu 04:26:26 AM 22.4290 -88.1060 322° Northwest 453 521 38,000  Level FlightAware ADS-B
Thu 04:27:07 AM 22.5080 -88.1710 323° Northwest 454 522 38,000  Level FlightAware ADS-B
Thu 04:27:52 AM 22.5840 -88.2340 323° Northwest 454 522 38,000  Level FlightAware ADS-B
Thu 04:28:35 AM 22.6480 -88.2870 323° Northwest 454 522 38,000  Level FlightAware ADS-B
Thu 04:29:16 AM 22.7270 -88.3530 322° Northwest 454 522 38,000  Level FlightAware ADS-B
Thu 04:30:02 AM 22.7950 -88.4090 323° Northwest 456 525 38,000  Level FlightAware ADS-B
Thu 04:30:43 AM 22.8660 -88.4690 322° Northwest 456 525 38,000  Level FlightAware ADS-B
Thu 04:31:25 AM 22.9350 -88.5260 323° Northwest 457 526 38,000  Level FlightAware ADS-B
Thu 04:32:07 AM 23.0060 -88.5850 323° Northwest 457 526 38,000  Level FlightAware ADS-B
Thu 04:32:48 AM 23.0850 -88.6510 322° Northwest 458 527 38,000  Level FlightAware ADS-B
Thu 04:33:44 AM 23.1640 -88.7180 322° Northwest 458 527 38,000  Level FlightAware ADS-B
Thu 04:34:21 AM 23.2740 -88.8090 323° Northwest 458 527 38,000  Level FlightAware ADS-B
Thu 04:35:06 AM 23.3420 -88.8680 321° Northwest 457 526 38,000  Level FlightAware ADS-B
Thu 04:35:42 AM 23.3930 -88.9110 322° Northwest 457 526 38,000  Level FlightAware ADS-B
Thu 04:36:25 AM 23.4800 -88.9830 323° Northwest 457 526 38,000  Level FlightAware ADS-B
Thu 04:37:02 AM 23.5330 -89.0280 322° Northwest 457 526 38,000  Level FlightAware ADS-B
Thu 04:37:50 AM 23.6010 -89.0860 322° Northwest 457 526 38,000  Level FlightAware ADS-B
Thu 04:38:27 AM 23.6530 -89.1310 322° Northwest 457 526 38,000  Level FlightAware ADS-B
Thu 04:39:15 AM 23.7210 -89.1890 322° Northwest 457 526 38,000  Level FlightAware ADS-B
Thu 04:39:52 AM 23.7730 -89.2330 322° Northwest 457 526 38,000  Level FlightAware ADS-B
Thu 04:40:28 AM 23.8240 -89.2770 322° Northwest 457 526 38,000  Level FlightAware ADS-B
Thu 04:41:14 AM 23.8900 -89.3320 323° Northwest 457 526 38,000  Level FlightAware ADS-B
Thu 04:41:52 AM 23.9430 -89.3780 322° Northwest 457 526 38,000  Level FlightAware ADS-B
Thu 04:42:40 AM 24.0110 -89.4370 322° Northwest 457 526 38,000  Level FlightAware ADS-B
Thu 04:43:17 AM 24.0640 -89.4810 323° Northwest 457 526 38,000  Level FlightAware ADS-B
Thu 04:44:05 AM 24.1320 -89.5400 322° Northwest 457 526 38,000  Level FlightAware ADS-B
Thu 04:44:41 AM 24.1830 -89.5830 322° Northwest 457 526 38,000  Level FlightAware ADS-B
Thu 04:44:53 AM 24.2000 -89.5980 321° Northwest 457 526 38,000  Level FlightAware ADS-B
Thu 04:46:05 AM 24.3020 -89.6850 322° Northwest 457 526 38,000  Level FlightAware ADS-B
Thu 04:48:00 AM 24.4793 -89.8502 320° Northwest  Level Estimated
Thu 04:49:00 AM 24.5718 -89.9366 320° Northwest  Level Estimated
Thu 04:50:00 AM 24.6642 -90.0231 320° Northwest  Level Estimated
Thu 04:51:00 AM 24.7565 -90.1097 320° Northwest  Level Estimated
Thu 04:52:00 AM 24.8581 -90.1834 327° Northwest  Level FlightAware Approximate
Thu 04:53:00 AM 24.9597 -90.2572 327° Northwest  Level FlightAware Approximate
Thu 04:54:00 AM 25.0613 -90.3312 327° Northwest  Level FlightAware Approximate
Thu 04:55:00 AM 25.1628 -90.4053 327° Northwest  Level FlightAware Approximate
Thu 04:56:00 AM 25.2642 -90.4795 327° Northwest  Level FlightAware Approximate
Thu 04:57:00 AM 25.3656 -90.5538 326° Northwest  Level FlightAware Approximate
Thu 04:58:00 AM 25.4670 -90.6283 326° Northwest  Level FlightAware Approximate
Thu 04:59:00 AM 25.5684 -90.7029 326° Northwest  Level FlightAware Approximate
Thu 05:00:00 AM 25.6697 -90.7776 326° Northwest  Level FlightAware Approximate
Thu 05:01:00 AM 25.7710 -90.8524 326° Northwest  Level FlightAware Approximate
Thu 05:02:00 AM 25.8722 -90.9274 326° Northwest  Level FlightAware Approximate
Thu 05:03:00 AM 25.9734 -91.0025 326° Northwest  Level FlightAware Approximate
Thu 05:04:00 AM 26.0746 -91.0777 326° Northwest  Level FlightAware Approximate
Thu 05:05:00 AM 26.1757 -91.1531 326° Northwest  Level FlightAware Approximate
Thu 05:06:00 AM 26.2768 -91.2286 326° Northwest  Level FlightAware Approximate
Thu 05:07:00 AM 26.3775 -91.3061 323° Northwest  Level FlightAware Approximate
Thu 05:07:56 AM 26.7633 -91.6242 326° Northwest 464 534 38,000  Level Houston Center
Thu 05:08:00 AM 26.4751 -91.3873 323° Northwest  Level FlightAware Approximate
Thu 05:08:57 AM 26.8667 -91.7022 326° Northwest 468 539 38,000  Level Houston Center
Thu 05:09:00 AM 26.5726 -91.4685 323° Northwest  Level FlightAware Approximate
Thu 05:09:57 AM 26.9736 -91.7989 321° Northwest 474 545 38,000  Level Houston Center
Thu 05:10:00 AM 26.6702 -91.5499 323° Northwest  Level FlightAware Approximate
Thu 05:11:00 AM 26.7682 -91.6305 326° Northwest  Level FlightAware Approximate
Thu 05:12:00 AM 26.8690 -91.7068 326° Northwest  Level FlightAware Approximate
Thu 05:13:00 AM 26.9698 -91.7833 326° Northwest  Level FlightAware Approximate
Thu 05:16:03 AM 27.5579 -92.4024 321° Northwest 459 528 38,000  Level FlightAware ADS-B
Thu 05:16:33 AM 27.6050 -92.4512 317° Northwest 459 528 38,000  Level FlightAware ADS-B
Thu 05:17:58 AM 27.7368 -92.5885 317° Northwest 456 525 38,000  Level FlightAware ADS-B
Thu 05:18:28 AM 27.7840 -92.6376 317° Northwest 456 525 38,000  Level FlightAware ADS-B
Thu 05:19:07 AM 27.8435 -92.6998 317° Northwest 455 524 38,000  Level FlightAware ADS-B
Thu 05:20:20 AM 27.9561 -92.8176 317° Northwest 455 524 38,000  Level FlightAware ADS-B
Thu 05:20:57 AM 28.0131 -92.8774 317° Northwest 454 522 38,000  Level FlightAware ADS-B
Thu 05:21:59 AM 28.0981 -92.9667 317° Northwest 454 522 38,000  Level Houston Center
Thu 05:23:00 AM 28.1906 -93.0653 317° Northwest 455 524 38,000  Level Houston Center
Thu 05:24:00 AM 28.2828 -93.1639 317° Northwest 455 524 38,000  Level Houston Center
Thu 05:25:00 AM 28.3675 -93.2514 318° Northwest 450 518 38,000  Level Houston Center
Thu 05:26:00 AM 28.4597 -93.3500 317° Northwest 454 522 38,000 -1,240 Level Houston Center
Thu 05:32:01 AM 29.0360 -93.9670 317° Northwest 450 518 29,300 -1,312 Descending FlightAware ADS-B
Thu 05:32:38 AM 29.0830 -94.0190 316° Northwest 450 518 29,300  Level FlightAware ADS-B
Thu 05:34:14 AM 29.2060 -94.1540 316° Northwest 450 518 29,300 -3,111 Level FlightAware ADS-B
Thu 05:34:26 AM 29.2458 -94.1937 319° Northwest 410 472 23,700 -6,500 Descending FlightAware ADS-B
Thu 05:35:26 AM 29.3271 -94.2820 317° Northwest 396 456 21,500 -2,267 Descending FlightAware ADS-B
Thu 05:35:56 AM 29.3666 -94.3251 316° Northwest 389 448 20,300 -2,267 Descending FlightAware ADS-B
Thu 05:36:56 AM 29.4441 -94.4096 316° Northwest 380 437 18,100 -2,242 Descending FlightAware ADS-B
Thu 05:37:27 AM 29.4832 -94.4523 316° Northwest 376 433 16,900 -2,262 Descending FlightAware ADS-B
Thu 05:37:57 AM 29.5212 -94.4939 316° Northwest 372 428 15,800 -2,100 Descending FlightAware ADS-B
Thu 05:38:27 AM 29.5582 -94.5346 316° Northwest 366 421 14,800 -2,066 Descending FlightAware ADS-B
Thu 05:38:58 AM 29.5952 -94.5751 316° Northwest 361 415 13,700 -2,164 Descending FlightAware ADS-B
Thu 05:39:28 AM 29.6313 -94.6145 317° Northwest 356 410 12,600 -2,110 Descending FlightAware ADS-B
Thu 05:40:29 AM 29.7027 -94.6932 316° Northwest 346 398 10,500 -1,714 Descending FlightAware ADS-B
Thu 05:40:59 AM 29.7368 -94.7307 316° Northwest 325 374 10,000 -800 Descending FlightAware ADS-B
Thu 05:41:14 AM 29.7527 -94.7483 316° Northwest 311 358 9,900 -391 Descending FlightAware ADS-B
Thu 05:41:45 AM 29.7830 -94.7816 316° Northwest 286 329 9,700 -783 Descending FlightAware ADS-B
Thu 05:42:00 AM 29.7974 -94.7974 316° Northwest 288 331 9,300 -1,565 Descending FlightAware ADS-B
Thu 05:42:31 AM 29.8271 -94.8303 316° Northwest 289 333 8,500 -1,565 Descending FlightAware ADS-B
Thu 05:42:46 AM 29.8418 -94.8464 316° Northwest 287 330 8,100 -1,435 Descending FlightAware ADS-B
Thu 05:43:17 AM 29.8710 -94.8788 316° Northwest 285 328 7,400 -1,333 Descending FlightAware ADS-B
Thu 05:43:31 AM 29.8849 -94.8941 316° Northwest 284 327 7,100 -1,241 Descending FlightAware ADS-B
Thu 05:43:46 AM 29.8992 -94.9099 316° Northwest 282 325 6,800 -1,355 Descending FlightAware ADS-B
Thu 05:44:02 AM 29.9136 -94.9259 316° Northwest 280 322 6,400 -1,391 Descending FlightAware ADS-B
Thu 05:44:55 AM 29.9628 -94.9807 315° West 275 316 5,200 -1,286 Descending FlightAware ADS-B
Thu 05:44:58 AM 29.9657 -94.9845 311° West 274 315 5,200 -857 Level FlightAware ADS-B
Thu 05:45:09 AM 29.9726 -94.9976 296° West 267 307 5,000 -1,412 Descending FlightAware ADS-B
Thu 05:45:15 AM 29.9752 -95.0059 287° West 265 305 4,800 -1,385 Descending FlightAware ADS-B
Thu 05:45:22 AM 29.9768 -95.0143 280° West 263 303 4,700 -1,250 Descending FlightAware ADS-B
Thu 05:45:39 AM 29.9776 -95.0376 271° West 257 296 4,300 -1,286 Descending FlightAware ADS-B
Thu 05:46:04 AM 29.9781 -95.0719 271° West 245 282 3,800 -1,273 Descending FlightAware ADS-B
Thu 05:46:12 AM 29.9780 -95.0824 269° West 243 280 3,600 -1,143 Descending FlightAware ADS-B
Thu 05:46:25 AM 29.9776 -95.0990 268° West 240 276 3,400 -1,250 Descending FlightAware ADS-B
Thu 05:46:36 AM 29.9776 -95.1123 270° West 237 273 3,100 -1,429 Descending FlightAware ADS-B
Thu 05:46:46 AM 29.9778 -95.1256 271° West 233 268 2,900 -1,154 Descending FlightAware ADS-B
Thu 05:47:02 AM 29.9775 -95.1452 269° West 228 262 2,600 -1,000 Descending FlightAware ADS-B
Thu 05:47:16 AM 29.9775 -95.1609 270° West 224 258 2,400 -1,034 Descending FlightAware ADS-B
Thu 05:47:31 AM 29.9776 -95.1792 270° West 215 247 2,100 -1,167 Descending FlightAware ADS-B
Thu 05:47:52 AM 29.9776 -95.2019 270° West 209 241 1,700 -1,050 Descending FlightAware ADS-B
Thu 05:48:11 AM 29.9776 -95.2216 270° West 183 211 1,400 -1,059 Descending FlightAware ADS-B
Thu 05:48:26 AM 29.9776 -95.2356 270° West 166 191 1,100 -1,000 Descending FlightAware ADS-B
Thu 05:48:35 AM 29.9776 -95.2429 270° West 158 182 1,000 -667 Descending FlightAware ADS-B
Thu 05:48:44 AM 29.9776 -95.2502 270° West 150 173 900 -800 Descending FlightAware ADS-B
Thu 05:48:50 AM 29.9776 -95.2553 270° West 142 163 800 -667 Descending FlightAware ADS-B
Thu 05:49:02 AM 29.9776 -95.2634 270° West 131 151 700 -632 Descending FlightAware ADS-B
Thu 05:49:09 AM 29.9776 -95.2686 270° West 128 147 600 -800 Descending FlightAware ADS-B
Thu 05:49:17 AM 29.9776 -95.2743 270° West 128 147 500 -632 Descending FlightAware ADS-B
Thu 05:49:28 AM 29.9776 -95.2816 270° West 128 147 400 -643 Descending FlightAware ADS-B
Thu 05:49:45 AM 29.9776 -95.2929 270° West 131 151 200 -706 Descending FlightAware ADS-B

Login

Don't have an account? Register now (free) for customized features, flight alerts, and more!